CSN6134 ZBAA-ZYTL
Flight info
| Callsign | CSN6134 |
|---|---|
| Flight time | 0h 41m |
| Altitude | 24600 |
| Route | MUGLO W34 ANRAT W575 INTIV |
| Aircraft | A20N/M-SDE2E3FGHIJ1RWXY/LB1 |
Departure
| Time | 2026-04-15 09:21 |
|---|---|
| Airport | Beijing Capital International Airport (ZBAA) |
Arrival
| Time | 2026-04-15 10:02 |
|---|---|
| Airport | Dalian Zhoushuizi International Airport (ZYTL) |
| Time | Latitude | Longitude | Altitude | Speed | Heading |
|---|---|---|---|---|---|
| 2026-04-15 09:09 | 40.07551 | 116.59166 | 118 ft | 0 kts | 314° |
| 2026-04-15 09:14 | 40.07541 | 116.59179 | 118 ft | 2 kts | 314° |
| 2026-04-15 09:14 | 40.07531 | 116.59193 | 118 ft | 2 kts | 314° |
| 2026-04-15 09:14 | 40.07521 | 116.59206 | 118 ft | 2 kts | 314° |
| 2026-04-15 09:15 | 40.07510 | 116.59222 | 118 ft | 2 kts | 324° |
| 2026-04-15 09:15 | 40.07496 | 116.59229 | 118 ft | 2 kts | 350° |
| 2026-04-15 09:15 | 40.07481 | 116.59229 | 118 ft | 2 kts | 14° |
| 2026-04-15 09:15 | 40.07467 | 116.59221 | 118 ft | 2 kts | 38° |
| 2026-04-15 09:16 | 40.07457 | 116.59206 | 118 ft | 2 kts | 61° |
| 2026-04-15 09:16 | 40.07453 | 116.59191 | 118 ft | 0 kts | 81° |
| 2026-04-15 09:16 | 40.07452 | 116.59183 | 118 ft | 0 kts | 84° |
| 2026-04-15 09:16 | 40.07452 | 116.59182 | 118 ft | 0 kts | 84° |
| 2026-04-15 09:17 | 40.07453 | 116.59196 | 118 ft | 6 kts | 84° |
| 2026-04-15 09:17 | 40.07474 | 116.59306 | 118 ft | 14 kts | 75° |
| 2026-04-15 09:17 | 40.07516 | 116.59406 | 118 ft | 13 kts | 13° |
| 2026-04-15 09:17 | 40.07623 | 116.59396 | 118 ft | 17 kts | 354° |
| 2026-04-15 09:18 | 40.07761 | 116.59376 | 118 ft | 21 kts | 352° |
| 2026-04-15 09:18 | 40.07911 | 116.59352 | 118 ft | 21 kts | 352° |
| 2026-04-15 09:18 | 40.08056 | 116.59330 | 118 ft | 20 kts | 353° |
| 2026-04-15 09:18 | 40.08200 | 116.59306 | 118 ft | 20 kts | 353° |
| 2026-04-15 09:19 | 40.08340 | 116.59286 | 118 ft | 20 kts | 353° |
| 2026-04-15 09:19 | 40.08481 | 116.59264 | 118 ft | 19 kts | 353° |
| 2026-04-15 09:19 | 40.08615 | 116.59241 | 118 ft | 19 kts | 354° |
| 2026-04-15 09:19 | 40.08748 | 116.59221 | 118 ft | 14 kts | 351° |
| 2026-04-15 09:20 | 40.08814 | 116.59277 | 118 ft | 13 kts | 85° |
| 2026-04-15 09:20 | 40.08824 | 116.59399 | 118 ft | 13 kts | 84° |
| 2026-04-15 09:20 | 40.08807 | 116.59502 | 118 ft | 12 kts | 163° |
| 2026-04-15 09:20 | 40.08600 | 116.59536 | 118 ft | 63 kts | 172° |
| 2026-04-15 09:21 | 40.07939 | 116.59641 | 118 ft | 127 kts | 174° |
| 2026-04-15 09:21 | 40.06901 | 116.59799 | 261 ft | 162 kts | 172° |
| 2026-04-15 09:21 | 40.05779 | 116.59985 | 860 ft | 163 kts | 173° |
| 2026-04-15 09:21 | 40.04685 | 116.60173 | 1581 ft | 159 kts | 171° |
| 2026-04-15 09:22 | 40.03714 | 116.60826 | 2128 ft | 167 kts | 139° |
| 2026-04-15 09:22 | 40.02944 | 116.62003 | 2493 ft | 183 kts | 131° |
| 2026-04-15 09:22 | 40.02134 | 116.63380 | 2830 ft | 202 kts | 131° |
| 2026-04-15 09:22 | 40.01219 | 116.64886 | 3143 ft | 225 kts | 133° |
| 2026-04-15 09:23 | 40.00186 | 116.66522 | 3583 ft | 243 kts | 133° |
| 2026-04-15 09:23 | 39.99067 | 116.68253 | 4075 ft | 261 kts | 134° |
| 2026-04-15 09:23 | 39.97873 | 116.70078 | 4781 ft | 269 kts | 134° |
| 2026-04-15 09:23 | 39.96642 | 116.71947 | 5613 ft | 273 kts | 135° |
| 2026-04-15 09:24 | 39.95415 | 116.73800 | 6407 ft | 278 kts | 135° |
| 2026-04-15 09:24 | 39.94136 | 116.75717 | 7230 ft | 281 kts | 134° |
| 2026-04-15 09:24 | 39.92867 | 116.77612 | 8061 ft | 284 kts | 134° |
| 2026-04-15 09:24 | 39.91567 | 116.79554 | 8892 ft | 287 kts | 133° |
| 2026-04-15 09:25 | 39.90261 | 116.81504 | 9703 ft | 291 kts | 133° |
| 2026-04-15 09:25 | 39.88932 | 116.83483 | 10464 ft | 296 kts | 133° |
| 2026-04-15 09:25 | 39.87529 | 116.85557 | 10921 ft | 312 kts | 133° |
| 2026-04-15 09:25 | 39.86060 | 116.87730 | 11302 ft | 330 kts | 132° |
| 2026-04-15 09:26 | 39.84508 | 116.90030 | 11649 ft | 349 kts | 132° |
| 2026-04-15 09:26 | 39.82865 | 116.92469 | 11967 ft | 367 kts | 132° |
| 2026-04-15 09:26 | 39.81163 | 116.94997 | 12273 ft | 383 kts | 132° |
| 2026-04-15 09:26 | 39.79387 | 116.97632 | 12678 ft | 396 kts | 132° |
| 2026-04-15 09:27 | 39.77551 | 117.00359 | 13305 ft | 401 kts | 132° |
| 2026-04-15 09:27 | 39.75695 | 117.03114 | 13798 ft | 410 kts | 132° |
| 2026-04-15 09:27 | 39.73787 | 117.05939 | 14167 ft | 421 kts | 132° |
| 2026-04-15 09:27 | 39.71852 | 117.08804 | 14713 ft | 427 kts | 132° |
| 2026-04-15 09:28 | 39.69893 | 117.11704 | 15275 ft | 431 kts | 132° |
| 2026-04-15 09:28 | 39.67911 | 117.14635 | 15828 ft | 436 kts | 132° |
| 2026-04-15 09:28 | 39.65906 | 117.17596 | 16345 ft | 441 kts | 132° |
| 2026-04-15 09:28 | 39.63884 | 117.20579 | 16866 ft | 446 kts | 132° |
| 2026-04-15 09:29 | 39.61832 | 117.23603 | 17391 ft | 450 kts | 132° |
| 2026-04-15 09:29 | 39.59758 | 117.26659 | 17916 ft | 454 kts | 132° |
| 2026-04-15 09:29 | 39.57669 | 117.29734 | 18422 ft | 458 kts | 132° |
| 2026-04-15 09:29 | 39.55555 | 117.32844 | 18898 ft | 463 kts | 132° |
| 2026-04-15 09:30 | 39.53393 | 117.36019 | 19372 ft | 468 kts | 132° |
| 2026-04-15 09:30 | 39.51239 | 117.39180 | 19816 ft | 472 kts | 132° |
| 2026-04-15 09:30 | 39.49075 | 117.42353 | 20264 ft | 476 kts | 132° |
| 2026-04-15 09:30 | 39.46875 | 117.45573 | 20709 ft | 480 kts | 133° |
| 2026-04-15 09:31 | 39.44666 | 117.48806 | 21199 ft | 482 kts | 133° |
| 2026-04-15 09:31 | 39.42448 | 117.52048 | 21782 ft | 482 kts | 133° |
| 2026-04-15 09:31 | 39.40222 | 117.55298 | 22402 ft | 482 kts | 133° |
| 2026-04-15 09:31 | 39.38023 | 117.58504 | 22966 ft | 483 kts | 133° |
| 2026-04-15 09:32 | 39.35806 | 117.61733 | 23505 ft | 484 kts | 133° |
| 2026-04-15 09:32 | 39.33570 | 117.64988 | 24041 ft | 485 kts | 133° |
| 2026-04-15 09:32 | 39.31336 | 117.68250 | 24550 ft | 485 kts | 134° |
| 2026-04-15 09:32 | 39.29094 | 117.71521 | 25069 ft | 486 kts | 134° |
| 2026-04-15 09:33 | 39.26878 | 117.74749 | 25463 ft | 489 kts | 134° |
| 2026-04-15 09:33 | 39.24595 | 117.78064 | 25788 ft | 493 kts | 134° |
| 2026-04-15 09:33 | 39.22309 | 117.81379 | 26157 ft | 496 kts | 134° |
| 2026-04-15 09:33 | 39.20027 | 117.84679 | 26466 ft | 500 kts | 134° |
| 2026-04-15 09:34 | 39.17725 | 117.88003 | 26489 ft | 501 kts | 134° |
| 2026-04-15 09:34 | 39.15398 | 117.91366 | 26503 ft | 502 kts | 134° |
| 2026-04-15 09:34 | 39.13070 | 117.94724 | 26509 ft | 502 kts | 134° |
| 2026-04-15 09:34 | 39.10745 | 117.98069 | 26502 ft | 502 kts | 134° |
| 2026-04-15 09:35 | 39.08564 | 118.01532 | 26494 ft | 504 kts | 125° |
| 2026-04-15 09:35 | 39.06889 | 118.05505 | 26496 ft | 506 kts | 112° |
| 2026-04-15 09:35 | 39.05851 | 118.09837 | 26509 ft | 504 kts | 101° |
| 2026-04-15 09:35 | 39.05196 | 118.14217 | 26516 ft | 505 kts | 98° |
| 2026-04-15 09:36 | 39.04559 | 118.18679 | 26516 ft | 505 kts | 99° |
| 2026-04-15 09:36 | 39.03912 | 118.23064 | 26523 ft | 506 kts | 99° |
| 2026-04-15 09:36 | 39.03229 | 118.27486 | 26520 ft | 505 kts | 100° |
| 2026-04-15 09:36 | 39.02525 | 118.31927 | 26519 ft | 505 kts | 100° |
| 2026-04-15 09:37 | 39.01815 | 118.36324 | 26526 ft | 505 kts | 100° |
| 2026-04-15 09:37 | 39.01105 | 118.40710 | 26524 ft | 506 kts | 100° |
| 2026-04-15 09:37 | 39.00384 | 118.45141 | 26529 ft | 506 kts | 100° |
| 2026-04-15 09:37 | 38.99665 | 118.49548 | 26527 ft | 505 kts | 100° |
| 2026-04-15 09:38 | 38.98946 | 118.53963 | 26533 ft | 505 kts | 99° |
| 2026-04-15 09:38 | 38.98228 | 118.58385 | 26536 ft | 505 kts | 99° |
| 2026-04-15 09:38 | 38.97517 | 118.62769 | 26537 ft | 505 kts | 99° |
| 2026-04-15 09:38 | 38.96799 | 118.67195 | 26539 ft | 505 kts | 100° |
| 2026-04-15 09:39 | 38.96082 | 118.71597 | 26541 ft | 505 kts | 100° |
| 2026-04-15 09:39 | 38.95371 | 118.75961 | 26542 ft | 505 kts | 100° |
| 2026-04-15 09:39 | 38.94642 | 118.80409 | 26541 ft | 505 kts | 101° |
| 2026-04-15 09:39 | 38.93926 | 118.84770 | 26546 ft | 506 kts | 100° |
| 2026-04-15 09:40 | 38.93200 | 118.89179 | 26533 ft | 506 kts | 101° |
| 2026-04-15 09:40 | 38.92462 | 118.93639 | 26537 ft | 507 kts | 100° |
| 2026-04-15 09:40 | 38.91733 | 118.98028 | 26533 ft | 508 kts | 100° |
| 2026-04-15 09:40 | 38.91000 | 119.02436 | 26533 ft | 507 kts | 100° |
| 2026-04-15 09:41 | 38.90268 | 119.06826 | 26532 ft | 507 kts | 100° |
| 2026-04-15 09:41 | 38.89527 | 119.11231 | 26540 ft | 508 kts | 100° |
| 2026-04-15 09:41 | 38.88770 | 119.15649 | 26537 ft | 508 kts | 100° |
| 2026-04-15 09:41 | 38.88012 | 119.20079 | 26545 ft | 510 kts | 101° |
| 2026-04-15 09:42 | 38.87252 | 119.24537 | 26541 ft | 520 kts | 100° |
| 2026-04-15 09:42 | 38.86466 | 119.29164 | 26546 ft | 530 kts | 100° |
| 2026-04-15 09:42 | 38.85683 | 119.33778 | 26542 ft | 533 kts | 100° |
| 2026-04-15 09:42 | 38.84904 | 119.38370 | 26545 ft | 534 kts | 100° |
| 2026-04-15 09:43 | 38.84109 | 119.43043 | 26554 ft | 534 kts | 100° |
| 2026-04-15 09:43 | 38.83320 | 119.47678 | 26553 ft | 534 kts | 100° |
| 2026-04-15 09:43 | 38.82530 | 119.52303 | 26549 ft | 534 kts | 100° |
| 2026-04-15 09:43 | 38.81735 | 119.56947 | 26553 ft | 535 kts | 100° |
| 2026-04-15 09:44 | 38.80940 | 119.61591 | 26550 ft | 534 kts | 100° |
| 2026-04-15 09:44 | 38.80148 | 119.66226 | 26558 ft | 535 kts | 101° |
| 2026-04-15 09:44 | 38.79349 | 119.70877 | 26563 ft | 534 kts | 100° |
| 2026-04-15 09:44 | 38.78548 | 119.75523 | 26564 ft | 534 kts | 101° |
| 2026-04-15 09:45 | 38.77695 | 119.80129 | 26538 ft | 531 kts | 99° |
| 2026-04-15 09:45 | 38.77409 | 119.84728 | 26005 ft | 508 kts | 82° |
| 2026-04-15 09:45 | 38.78031 | 119.88997 | 24858 ft | 490 kts | 70° |
| 2026-04-15 09:45 | 38.79025 | 119.93141 | 23203 ft | 488 kts | 68° |
| 2026-04-15 09:46 | 38.80005 | 119.97215 | 21299 ft | 489 kts | 71° |
| 2026-04-15 09:46 | 38.80888 | 120.01362 | 19866 ft | 476 kts | 73° |
| 2026-04-15 09:46 | 38.81639 | 120.05351 | 18805 ft | 456 kts | 75° |
| 2026-04-15 09:46 | 38.82316 | 120.09264 | 17351 ft | 447 kts | 76° |
| 2026-04-15 09:47 | 38.82934 | 120.13063 | 15924 ft | 437 kts | 77° |
| 2026-04-15 09:47 | 38.83524 | 120.16821 | 14548 ft | 426 kts | 77° |
| 2026-04-15 09:47 | 38.84079 | 120.20421 | 13622 ft | 410 kts | 77° |
| 2026-04-15 09:47 | 38.84621 | 120.23957 | 13243 ft | 401 kts | 78° |
| 2026-04-15 09:48 | 38.85109 | 120.27161 | 12878 ft | 399 kts | 78° |
| 2026-04-15 09:48 | 38.85627 | 120.30572 | 12472 ft | 395 kts | 78° |
| 2026-04-15 09:48 | 38.86147 | 120.34006 | 12048 ft | 392 kts | 78° |
| 2026-04-15 09:48 | 38.86661 | 120.37408 | 11633 ft | 389 kts | 78° |
| 2026-04-15 09:49 | 38.87170 | 120.40792 | 11207 ft | 385 kts | 78° |
| 2026-04-15 09:49 | 38.87674 | 120.44150 | 10815 ft | 380 kts | 78° |
| 2026-04-15 09:49 | 38.88164 | 120.47415 | 10678 ft | 363 kts | 78° |
| 2026-04-15 09:49 | 38.88625 | 120.50504 | 10533 ft | 348 kts | 78° |
| 2026-04-15 09:50 | 38.89072 | 120.53505 | 10404 ft | 334 kts | 78° |
| 2026-04-15 09:50 | 38.89500 | 120.56371 | 10277 ft | 321 kts | 78° |
| 2026-04-15 09:50 | 38.89908 | 120.59115 | 10169 ft | 307 kts | 78° |
| 2026-04-15 09:50 | 38.90298 | 120.61731 | 10083 ft | 294 kts | 79° |
| 2026-04-15 09:51 | 38.90670 | 120.64243 | 10016 ft | 281 kts | 79° |
| 2026-04-15 09:51 | 38.91030 | 120.66678 | 9761 ft | 277 kts | 79° |
| 2026-04-15 09:51 | 38.91387 | 120.69108 | 9425 ft | 276 kts | 79° |
| 2026-04-15 09:51 | 38.91741 | 120.71516 | 9096 ft | 275 kts | 79° |
| 2026-04-15 09:52 | 38.92097 | 120.73936 | 8767 ft | 274 kts | 79° |
| 2026-04-15 09:52 | 38.92450 | 120.76333 | 8433 ft | 274 kts | 79° |
| 2026-04-15 09:52 | 38.92799 | 120.78713 | 8107 ft | 273 kts | 80° |
| 2026-04-15 09:52 | 38.93152 | 120.81117 | 7785 ft | 272 kts | 80° |
| 2026-04-15 09:53 | 38.93502 | 120.83496 | 7472 ft | 271 kts | 80° |
| 2026-04-15 09:53 | 38.93846 | 120.85854 | 7171 ft | 270 kts | 80° |
| 2026-04-15 09:53 | 38.94190 | 120.88203 | 6873 ft | 268 kts | 80° |
| 2026-04-15 09:53 | 38.94532 | 120.90552 | 6578 ft | 267 kts | 80° |
| 2026-04-15 09:54 | 38.94871 | 120.92879 | 6290 ft | 266 kts | 80° |
| 2026-04-15 09:54 | 38.95208 | 120.95197 | 6000 ft | 264 kts | 80° |
| 2026-04-15 09:54 | 38.95546 | 120.97532 | 5711 ft | 263 kts | 80° |
| 2026-04-15 09:54 | 38.95880 | 120.99831 | 5426 ft | 262 kts | 80° |
| 2026-04-15 09:55 | 38.96211 | 121.02118 | 5141 ft | 261 kts | 80° |
| 2026-04-15 09:55 | 38.96540 | 121.04391 | 4860 ft | 259 kts | 79° |
| 2026-04-15 09:55 | 38.96867 | 121.06654 | 4575 ft | 258 kts | 79° |
| 2026-04-15 09:55 | 38.97192 | 121.08904 | 4291 ft | 257 kts | 79° |
| 2026-04-15 09:56 | 38.97590 | 121.11127 | 4017 ft | 256 kts | 78° |
| 2026-04-15 09:56 | 38.97855 | 121.13404 | 3742 ft | 255 kts | 87° |
| 2026-04-15 09:56 | 38.97890 | 121.17929 | 3188 ft | 253 kts | 92° |
| 2026-04-15 09:57 | 38.97837 | 121.20178 | 2993 ft | 251 kts | 92° |
| 2026-04-15 09:57 | 38.97769 | 121.22330 | 2972 ft | 237 kts | 93° |
| 2026-04-15 09:57 | 38.97695 | 121.24419 | 2983 ft | 232 kts | 93° |
| 2026-04-15 09:57 | 38.97621 | 121.26471 | 2966 ft | 227 kts | 93° |
| 2026-04-15 09:58 | 38.97549 | 121.28484 | 2958 ft | 225 kts | 92° |
| 2026-04-15 09:58 | 38.97480 | 121.30419 | 2956 ft | 213 kts | 92° |
| 2026-04-15 09:58 | 38.97416 | 121.32275 | 2957 ft | 200 kts | 92° |
| 2026-04-15 09:58 | 38.97355 | 121.34020 | 2996 ft | 194 kts | 92° |
| 2026-04-15 09:59 | 38.97295 | 121.35773 | 2902 ft | 197 kts | 92° |
| 2026-04-15 09:59 | 38.97236 | 121.37509 | 2598 ft | 194 kts | 93° |
| 2026-04-15 09:59 | 38.97178 | 121.39232 | 2287 ft | 191 kts | 93° |
| 2026-04-15 09:59 | 38.97123 | 121.40884 | 1991 ft | 180 kts | 93° |
| 2026-04-15 10:00 | 38.97072 | 121.42424 | 1724 ft | 166 kts | 93° |
| 2026-04-15 10:00 | 38.97024 | 121.43832 | 1472 ft | 153 kts | 94° |
| 2026-04-15 10:00 | 38.96981 | 121.45143 | 1255 ft | 141 kts | 94° |
| 2026-04-15 10:00 | 38.96957 | 121.46380 | 1076 ft | 140 kts | 91° |
| 2026-04-15 10:01 | 38.96970 | 121.47626 | 867 ft | 139 kts | 91° |
| 2026-04-15 10:01 | 38.96945 | 121.48860 | 692 ft | 137 kts | 95° |
| 2026-04-15 10:01 | 38.96861 | 121.50085 | 472 ft | 137 kts | 97° |
| 2026-04-15 10:01 | 38.96766 | 121.51296 | 264 ft | 136 kts | 98° |
| 2026-04-15 10:02 | 38.96674 | 121.52487 | 127 ft | 132 kts | 97° |
| 2026-04-15 10:02 | 38.96593 | 121.53521 | 114 ft | 93 kts | 95° |
| 2026-04-15 10:02 | 38.96549 | 121.54102 | 114 ft | 42 kts | 95° |
| 2026-04-15 10:02 | 38.96527 | 121.54391 | 114 ft | 28 kts | 98° |
| 2026-04-15 10:03 | 38.96486 | 121.54623 | 114 ft | 25 kts | 112° |
| 2026-04-15 10:03 | 38.96422 | 121.54755 | 114 ft | 14 kts | 127° |
| 2026-04-15 10:03 | 38.96352 | 121.54833 | 114 ft | 13 kts | 185° |
| 2026-04-15 10:03 | 38.96326 | 121.54731 | 114 ft | 13 kts | 275° |
| 2026-04-15 10:04 | 38.96335 | 121.54606 | 114 ft | 14 kts | 278° |
| 2026-04-15 10:04 | 38.96345 | 121.54477 | 114 ft | 14 kts | 274° |
| 2026-04-15 10:04 | 38.96356 | 121.54342 | 114 ft | 15 kts | 276° |
| 2026-04-15 10:04 | 38.96366 | 121.54203 | 114 ft | 15 kts | 275° |
| 2026-04-15 10:05 | 38.96378 | 121.54059 | 114 ft | 16 kts | 275° |
| 2026-04-15 10:05 | 38.96389 | 121.53913 | 114 ft | 14 kts | 276° |
| 2026-04-15 10:05 | 38.96346 | 121.53857 | 114 ft | 10 kts | 180° |
| 2026-04-15 10:05 | 38.96291 | 121.53855 | 114 ft | 5 kts | 180° |
| 2026-04-15 10:06 | 38.96252 | 121.53854 | 114 ft | 4 kts | 183° |
| 2026-04-15 10:06 | 38.96240 | 121.53853 | 114 ft | 0 kts | 182° |
| 2026-04-15 10:06 | 38.96235 | 121.53852 | 114 ft | 0 kts | 184° |